Logo AVAMET
Benvolgut visitant, si us plau, ingressa Recuperar contrasenya
AVAMET paisatges

Dolores

Dades diàries. Acumulats / Últims 30 dies disponibles

Data Temperatura (°C) Humitat rel. (%) Pressió rel. (hPa) Vent (km/h) Precipitació
Mínima Mitjana Màxima Amplitud
tèrmica
Mínima Mitjana Màxima Mínima Mitjana Màxima Predom. Mitjana Ràfega
màxima
Total
(mm)
Índex-n
Mínima Mitjana Màxima Mínima Mitjana Màxima n
0 a 1
P0 max
mm 5'
Dades mensuals acumulades fins l'últim dia disponible
04/2020 8,3 11,8 15,9 16,3 17,5 20,9 26,2 17,9 12 70 99 1.013 1.013 1.013   42,0 28,7
Dades anuals acumulades fins l'últim dia disponible
2020 1,1 9,0 15,9 14,5 12,2 20,1 28,4 27,3 10 68 99 1.012 1.015 1.031   74,0 198,8
Últims 30 dies disponibles
25-04-2020 12,9     15,2     17,5 4,6 62 79 95 1.013 1.013 1.013 12,0 0,0
24-04-2020 10,9     16,0     21,1 10,2 12 54 95 1.013 1.013 1.013 29,0 0,0
23-04-2020 11,1     16,2     21,3 10,2 53 75 96 1.013 1.013 1.013 26,0 0,0
22-04-2020 15,9     19,8     23,6 7,7 40 59 78 1.013 1.013 1.013 40,0 0,0
21-04-2020 11,9     17,8     23,6 11,7 30 55 80 1.013 1.013 1.013 39,0 0,4
20-04-2020 14,5     20,4     26,2 11,7 30 60 89 1.013 1.013 1.013 42,0 0,1
19-04-2020 14,7     18,9     23,1 8,4 60 80 99 1.013 1.013 1.013 23,0 1,8
18-04-2020 14,5     17,8     21,0 6,5 63 80 97 1.013 1.013 1.013 32,0 0,5
17-04-2020 13,3     17,2     21,1 7,8 65 82 99 1.013 1.013 1.013 29,0 0,3
16-04-2020 11,3     15,8     20,4 9,1 65 82 99 1.013 1.013 1.013 23,0 0,0
15-04-2020 14,8     17,6     20,5 5,7 65 81 97 1.013 1.013 1.013 33,0 6,1
14-04-2020 14,0     17,5     21,0 7,0 65 82 99 1.013 1.013 1.013 28,0 3,5
13-04-2020 12,9     16,6     20,4 7,5 63 80 97 1.013 1.013 1.013 26,0 2,4
12-04-2020 12,8     16,4     20,0 7,2 35 60 84 1.013 1.013 1.013 33,0 0,3
11-04-2020 10,0     15,6     21,2 11,2 39 64 88 1.013 1.013 1.013 26,0 0,0
10-04-2020 12,3     17,0     21,7 9,4 24 53 82 1.013 1.013 1.013 23,0 0,0
09-04-2020 9,7     15,3     21,0 11,3 36 63 90 1.013 1.013 1.013 29,0 0,0
08-04-2020 8,3     14,2     20,0 11,7 39 65 91 1.013 1.013 1.013 25,0 0,0
07-04-2020 10,4     15,2     19,9 9,5 47 72 96 1.013 1.013 1.013 29,0 0,0
06-04-2020 9,1     14,7     20,3 11,2 52 75 97 1.013 1.013 1.013 23,0 0,0
05-04-2020 9,5     14,1     18,6 9,1 54 73 92 1.013 1.013 1.013 29,0 0,0
04-04-2020 8,5     13,6     18,6 10,1 56 76 96 1.013 1.013 1.013 29,0 0,0
03-04-2020 9,9     14,9     19,9 10,0 40 68 96 1.013 1.013 1.013 29,0 0,1
02-04-2020 8,6     13,8     19,0 10,4 50 74 97 1.013 1.013 1.013 33,0 9,4
01-04-2020 12,0     16,9     21,7 9,7 48 73 98 1.013 1.013 1.013 29,0 3,8
31-03-2020 8,5     14,1     19,6 11,1 55 76 97 1.013 1.013 1.013 36,0 1,5
30-03-2020 8,3     12,9     17,5 9,2 63 79 94 1.013 1.013 1.013 48,0 0,0
29-03-2020 6,1     12,9     19,8 13,7 46 73 99 1.013 1.013 1.013 14,0 0,0
28-03-2020 8,4     13,2     18,1 9,7 42 67 91 1.013 1.013 1.013 23,0 3,1
27-03-2020 9,7     10,9     12,2 2,5 64 78 92 1.013 1.013 1.013 33,0 10,1
Últims 13 mesos disponibles
04/2020 8,3 11,8 15,9 16,3 17,5 20,9 26,2 17,9 53 70 82 1.013 1.013 1.013 42,0 28,7
03/2020 6,1 10,4 14,4 15,3 12,2 20,2 28,4 22,3 37 65 86 1.013 1.014 1.024 72,0 121,2
02/2020 3,5 8,3 12,8 14,9 16,1 21,5 26,6 23,1 51 68 88 1.013 1.020 1.024 40,0 0,5
01/2020 1,1 5,9 12,2 11,8 13,4 17,7 22,8 21,7 50 71 83 1.012 1.016 1.025 74,0 48,4
12/2019 4,9 8,7 17,7 14,0 14,7 19,2 26,0 21,1 38 66 84 1.013 1.015 1.016 49,0 32,6
11/2019 4,4 10,9 18,9 15,9 14,5 21,0 28,7 24,3 40 55 93 1.001 1.011 1.018 69,0 13,7
10/2019 9,8 14,8 20,8 20,6 16,2 26,4 34,7 24,9 46 65 86 1.009 1.017 1.023 39,0 20,4
09/2019 16,4 20,5 23,1 24,5 21,9 28,6 33,4 17,0 49 69 81 1.008 1.015 1.020 54,0 147,7
08/2019 18,7 21,2 24,0 26,8 28,7 32,4 40,2 21,5 48 65 75 1.011 1.016 1.021 48,0 28,0
07/2019 18,9 21,3 25,4 27,1 29,3 33,0 37,6 18,7 44 57 71 1.006 1.013 1.021 45,0 0,0
06/2019 11,7 16,8 20,8 22,9 23,8 29,0 36,1 24,4 43 59 75 1.009 1.014 1.024 69,0 0,0
05/2019 9,9 13,9 18,9 19,6 21,0 25,3 31,8 21,9 51 62 73 1.004 1.013 1.022 57,0 1,5
04/2019 7,2 10,8 14,1 16,2 14,4 21,5 29,6 22,4 47 62 85 1.002 1.013 1.028 62,0 137,7
Tots els anys disponibles
2019 -1,2 13,0 25,4 18,7 13,5 24,5 40,2 41,4 25 61 93 999 1.016 1.034 74,0 401,0
2018 0,8 13,5 25,0 18,8 10,8 24,1 37,2 36,4 34 63 89 994 1.016 1.034 82,0 289,6
Temperatura (°C)
Humitat relativa (%)
Velocitat del vent i ràfega màxima (km/h)
Direcció del vent (°)
Pressió (hPa)
Precipitació (mm)
Nota sobre les dades: s'avisa a l'usuari de la provisionalitat i no oficialitat d'aquestes dades
Logo AVAMET blanc
Web allotjada a Sollutia
Llicència de Creative CommonsLa web d'AVAMET i els seus continguts estan subjectes a una llicència de
Reconeixement - No Comercial - Compartir igual
Últimes estacions: Xodos - la Vega (Soci), la Vall d'Alba - Centre (Ajuntament soci), Chera (Ajuntament soci) - - -